createdAt,value
2019-06-07T00:00:57.238Z,6.90
2019-06-07T00:03:29.526Z,6.07
2019-06-07T00:05:50.708Z,6.67
2019-06-07T00:08:26.961Z,7.30
2019-06-07T00:10:44.183Z,8.87
2019-06-07T00:13:12.112Z,8.90
2019-06-07T00:15:37.666Z,6.73
2019-06-07T00:18:03.623Z,8.57
2019-06-07T00:20:29.412Z,7.70
2019-06-07T00:22:55.194Z,9.17
2019-06-07T00:25:24.273Z,6.67
2019-06-07T00:27:48.778Z,4.10
2019-06-07T00:30:39.439Z,8.20
2019-06-07T00:32:44.250Z,7.03
2019-06-07T00:35:11.711Z,8.83
2019-06-07T00:37:37.852Z,10.40
2019-06-07T00:40:14.189Z,8.73
2019-06-07T00:42:32.929Z,6.20
2019-06-07T00:44:58.751Z,5.27
2019-06-07T00:47:25.814Z,7.20
2019-06-07T00:49:51.697Z,7.27
2019-06-07T00:53:10.707Z,8.03
2019-06-07T00:54:45.190Z,7.30
2019-06-07T00:57:12.490Z,7.80
2019-06-07T00:59:38.660Z,7.93
2019-06-07T01:02:05.511Z,8.73
2019-06-07T01:04:31.438Z,6.63
2019-06-07T01:06:57.243Z,6.47
2019-06-07T01:09:25.318Z,9.50
2019-06-07T01:11:50.700Z,7.30
2019-06-07T01:14:20.296Z,5.60
2019-06-07T01:16:56.634Z,5.60
2019-06-07T01:19:11.858Z,8.20
2019-06-07T01:21:37.656Z,7.30
2019-06-07T01:24:11.828Z,8.77
2019-06-07T01:26:31.219Z,7.77
2019-06-07T01:28:57.001Z,6.63
2019-06-07T01:31:25.393Z,8.13
2019-06-07T01:33:51.453Z,10.47
2019-06-07T01:36:18.274Z,9.17
2019-06-07T01:38:45.086Z,7.67
2019-06-07T01:41:10.888Z,5.27
2019-06-07T01:43:36.663Z,8.23
2019-06-07T01:46:02.691Z,6.17
2019-06-07T01:48:47.963Z,8.97
2019-06-07T01:50:56.148Z,9.03
2019-06-07T01:53:38.506Z,8.23
2019-06-07T01:56:04.297Z,7.67
2019-06-07T01:58:30.086Z,8.10
2019-06-07T02:00:55.872Z,10.87
2019-06-07T02:03:26.269Z,5.13
2019-06-07T02:05:49.337Z,6.90
2019-06-07T02:08:15.129Z,9.70
2019-06-07T02:10:40.918Z,6.13
2019-06-07T02:13:06.707Z,6.83
2019-06-07T02:15:36.707Z,9.23
2019-06-07T02:18:00.204Z,6.47
2019-06-07T02:20:27.932Z,8.40
2019-06-07T02:22:53.782Z,14.33
2019-06-07T02:25:43.852Z,10.73
2019-06-07T02:27:47.259Z,8.40
2019-06-07T02:32:41.058Z,7.50
2019-06-07T02:35:06.838Z,8.50
2019-06-07T02:37:36.528Z,9.67
2019-06-07T02:40:00.316Z,6.27
2019-06-07T02:42:30.814Z,7.00
2019-06-07T02:44:53.898Z,4.87
2019-06-07T02:47:19.707Z,6.70
2019-06-07T02:49:45.584Z,6.50
2019-06-07T02:52:11.353Z,8.93
2019-06-07T02:54:40.505Z,8.23
2019-06-07T02:57:04.837Z,9.13
2019-06-07T02:59:54.481Z,9.03
2019-06-07T03:01:58.421Z,6.23
2019-06-07T03:04:27.168Z,5.67
2019-06-07T03:06:52.589Z,10.43
2019-06-07T03:09:18.679Z,7.17
2019-06-07T03:11:44.971Z,8.20
2019-06-07T03:14:11.472Z,7.63
2019-06-07T03:16:56.968Z,8.00
2019-06-07T03:19:26.346Z,9.30
2019-06-07T03:21:52.253Z,8.43
2019-06-07T03:24:21.747Z,7.13
2019-06-07T03:27:32.319Z,7.87
2019-06-07T03:29:15.244Z,8.33
2019-06-07T03:31:47.074Z,10.20
2019-06-07T03:34:08.710Z,7.23
2019-06-07T03:36:38.727Z,10.37
2019-06-07T03:39:03.999Z,6.17
2019-06-07T03:41:38.593Z,7.13
2019-06-07T03:43:57.463Z,9.50
2019-06-07T03:46:23.265Z,5.57
2019-06-07T03:48:49.042Z,6.23
2019-06-07T03:51:24.770Z,7.53
2019-06-07T03:53:42.520Z,7.33
2019-06-07T03:56:16.372Z,7.20
2019-06-07T03:58:49.568Z,6.50
2019-06-07T04:01:09.877Z,9.50
2019-06-07T04:03:45.393Z,9.63
2019-06-07T04:06:03.349Z,7.80
2019-06-07T04:08:30.796Z,9.67
2019-06-07T04:11:00.012Z,6.50
2019-06-07T04:13:24.499Z,7.10
2019-06-07T04:15:50.315Z,7.27
2019-06-07T04:18:16.085Z,7.83
2019-06-07T04:20:41.867Z,10.97
2019-06-07T04:23:27.325Z,8.03
2019-06-07T04:25:39.353Z,8.47
2019-06-07T04:28:03.128Z,7.60
2019-06-07T04:30:44.453Z,6.00
2019-06-07T04:33:11.215Z,7.33
2019-06-07T04:35:40.037Z,6.00
2019-06-07T04:38:05.305Z,8.97
2019-06-07T04:40:32.303Z,7.67
2019-06-07T04:42:59.471Z,8.13
2019-06-07T04:45:40.263Z,7.67
2019-06-07T04:47:54.554Z,9.60
2019-06-07T04:50:20.349Z,7.33
2019-06-07T04:52:46.132Z,6.37
2019-06-07T04:55:11.920Z,11.57
2019-06-07T04:57:40.426Z,7.33
2019-06-07T05:00:33.896Z,7.87
2019-06-07T05:02:36.835Z,6.83
2019-06-07T05:05:00.962Z,7.47
2019-06-07T05:07:26.760Z,5.63
2019-06-07T05:09:52.592Z,6.23
2019-06-07T05:12:18.321Z,8.67
2019-06-07T05:14:44.391Z,6.10
2019-06-07T05:17:10.284Z,8.13
2019-06-07T05:19:38.519Z,5.17
2019-06-07T05:22:05.232Z,6.13
2019-06-07T05:24:34.827Z,6.53
2019-06-07T05:26:58.926Z,5.33
2019-06-07T05:29:24.707Z,7.47
2019-06-07T05:31:50.691Z,4.30
2019-06-07T05:34:16.463Z,4.80
2019-06-07T05:36:44.898Z,7.27
2019-06-07T05:39:09.931Z,5.73
2019-06-07T05:41:37.135Z,4.27
2019-06-07T05:44:12.758Z,6.00
2019-06-07T05:46:33.893Z,4.93
2019-06-07T05:48:59.599Z,4.70
2019-06-07T05:51:25.387Z,4.87
2019-06-07T05:53:51.161Z,3.27
2019-06-07T05:56:17.395Z,5.43
2019-06-07T05:58:44.710Z,3.70
2019-06-07T06:01:42.908Z,4.93
2019-06-07T06:03:40.273Z,4.73
2019-06-07T06:06:05.911Z,4.13
2019-06-07T06:08:31.704Z,4.27
2019-06-07T06:10:57.490Z,4.60
2019-06-07T06:13:23.271Z,3.37
2019-06-07T06:16:00.532Z,2.87
2019-06-07T06:18:16.747Z,2.73
2019-06-07T06:21:04.666Z,5.10
2019-06-07T06:23:10.501Z,3.10
2019-06-07T06:25:38.622Z,3.90
2019-06-07T06:28:11.493Z,5.30
2019-06-07T06:30:31.670Z,5.23
2019-06-07T06:32:58.670Z,4.57
2019-06-07T06:35:24.752Z,4.10
2019-06-07T06:37:53.219Z,3.13
2019-06-07T06:40:19.617Z,3.70
2019-06-07T06:42:48.574Z,3.60
2019-06-07T06:45:13.669Z,3.47
2019-06-07T06:47:40.684Z,2.63
2019-06-07T06:50:07.659Z,2.57
2019-06-07T06:52:33.442Z,5.23
2019-06-07T06:55:01.082Z,4.53
2019-06-07T06:57:27.865Z,2.33
2019-06-07T06:59:53.699Z,5.10
2019-06-07T07:02:19.471Z,3.87
2019-06-07T07:04:46.132Z,4.43
2019-06-07T07:07:13.326Z,2.20
2019-06-07T07:09:39.211Z,2.60
2019-06-07T07:12:11.969Z,2.97
2019-06-07T07:14:34.500Z,2.07
2019-06-07T07:17:00.277Z,4.63
2019-06-07T07:19:26.093Z,4.70
2019-06-07T07:21:53.540Z,2.03
2019-06-07T07:24:22.001Z,2.53
2019-06-07T07:26:50.067Z,2.60
2019-06-07T07:29:14.919Z,2.73
2019-06-07T07:31:40.669Z,2.60
2019-06-07T07:34:31.830Z,2.37
2019-06-07T07:36:39.425Z,1.87
2019-06-07T07:39:04.983Z,3.60
2019-06-07T07:41:29.513Z,3.03
2019-06-07T07:44:04.701Z,3.23
2019-06-07T07:46:29.804Z,2.70
2019-06-07T07:48:53.936Z,2.30
2019-06-07T07:51:18.438Z,3.10
2019-06-07T07:53:54.345Z,4.30
2019-06-07T07:56:11.987Z,2.37
2019-06-07T07:58:37.774Z,2.63
2019-06-07T08:01:10.299Z,3.43
2019-06-07T08:03:31.239Z,3.47
2019-06-07T08:05:58.906Z,3.43
2019-06-07T08:08:24.712Z,2.47
2019-06-07T08:10:53.690Z,1.87
2019-06-07T08:13:25.436Z,2.67
2019-06-07T08:15:48.319Z,3.53
2019-06-07T08:18:13.537Z,5.10
2019-06-07T08:20:39.321Z,3.37
2019-06-07T08:23:05.103Z,1.87
2019-06-07T08:25:30.887Z,5.57
2019-06-07T08:27:58.594Z,3.93
2019-06-07T08:32:57.562Z,4.60
2019-06-07T08:36:03.085Z,5.27
2019-06-07T08:38:21.435Z,2.50
2019-06-07T08:40:16.333Z,3.40
2019-06-07T08:42:59.818Z,2.83
2019-06-07T08:45:10.454Z,3.27
2019-06-07T08:47:36.222Z,3.13
2019-06-07T08:50:07.657Z,5.60
2019-06-07T08:52:32.091Z,5.20
2019-06-07T08:55:02.934Z,4.47
2019-06-07T08:57:25.546Z,3.60
2019-06-07T08:59:53.038Z,2.43
2019-06-07T09:02:23.682Z,3.57
2019-06-07T09:04:46.687Z,5.17
2019-06-07T09:07:19.474Z,3.93
2019-06-07T09:09:40.145Z,3.13
2019-06-07T09:12:10.712Z,2.63
2019-06-07T09:14:33.589Z,2.90
2019-06-07T09:17:04.779Z,4.83
2019-06-07T09:19:27.048Z,1.80
2019-06-07T09:21:54.614Z,2.50
2019-06-07T09:24:20.507Z,3.23
2019-06-07T09:26:46.409Z,5.43
2019-06-07T09:29:12.315Z,4.57
2019-06-07T09:31:51.781Z,4.50
2019-06-07T09:34:13.655Z,3.20
2019-06-07T09:36:33.530Z,3.77
2019-06-07T09:39:06.433Z,3.43
2019-06-07T09:41:46.765Z,3.67
2019-06-07T09:44:14.223Z,5.33
2019-06-07T09:46:26.135Z,2.83
2019-06-07T09:51:21.090Z,3.60
2019-06-07T09:53:47.643Z,3.90
2019-06-07T09:56:14.262Z,2.77
2019-06-07T09:58:51.920Z,2.47
2019-06-07T10:01:13.141Z,2.40
2019-06-07T10:03:37.572Z,3.30
2019-06-07T10:06:11.056Z,3.13
2019-06-07T10:11:00.879Z,2.70
2019-06-07T10:13:27.487Z,2.63
2019-06-07T10:15:54.065Z,2.83
2019-06-07T10:18:20.671Z,2.83
2019-06-07T10:20:47.219Z,2.87
2019-06-07T10:23:13.833Z,4.60
2019-06-07T10:25:40.382Z,3.93
2019-06-07T10:28:08.232Z,5.17
2019-06-07T10:30:34.941Z,2.20
2019-06-07T10:33:02.197Z,2.37
2019-06-07T10:35:28.948Z,2.67
2019-06-07T10:37:58.211Z,2.73
2019-06-07T10:40:24.020Z,3.67
2019-06-07T10:42:50.636Z,4.00
2019-06-07T10:45:17.181Z,4.17
2019-06-07T10:47:43.792Z,2.60
2019-06-07T10:50:12.314Z,3.20
2019-06-07T10:52:38.931Z,3.20
2019-06-07T10:55:06.561Z,2.27
2019-06-07T10:57:33.222Z,2.87
2019-06-07T10:59:59.853Z,2.13
2019-06-07T11:02:26.389Z,3.60
2019-06-07T11:04:52.999Z,3.17
2019-06-07T11:10:46.956Z,1.97
2019-06-07T11:13:12.872Z,2.90
2019-06-07T11:15:38.814Z,2.60
2019-06-07T11:18:06.224Z,2.63
2019-06-07T11:20:32.239Z,3.17
2019-06-07T11:22:58.157Z,2.83
2019-06-07T11:25:24.172Z,1.90
2019-06-07T11:27:50.097Z,3.33
2019-06-07T11:30:16.190Z,4.07
2019-06-07T11:32:42.235Z,3.33
2019-06-07T11:35:08.645Z,2.07
2019-06-07T11:37:34.585Z,4.10
2019-06-07T11:40:00.492Z,2.73
2019-06-07T11:42:26.412Z,3.47
2019-06-07T11:44:56.629Z,1.40
2019-06-07T11:47:20.172Z,3.87
2019-06-07T11:49:46.061Z,2.40
2019-06-07T11:52:11.982Z,3.10
2019-06-07T11:54:38.080Z,2.77
2019-06-07T11:57:04.001Z,3.13
2019-06-07T11:59:29.904Z,1.60
2019-06-07T12:01:55.855Z,4.03
2019-06-07T12:04:32.384Z,2.57
2019-06-07T12:06:49.612Z,3.60
2019-06-07T12:09:16.831Z,1.93
2019-06-07T12:11:42.936Z,1.93
2019-06-07T12:14:08.888Z,2.23
2019-06-07T12:16:34.760Z,4.37
2019-06-07T12:19:00.713Z,3.07
2019-06-07T12:21:26.614Z,1.60
2019-06-07T12:23:52.660Z,3.57
2019-06-07T12:26:18.731Z,2.33
2019-06-07T12:28:44.683Z,3.13
2019-06-07T12:31:10.909Z,4.80
2019-06-07T12:33:36.942Z,2.03
2019-06-07T12:36:02.953Z,2.03
2019-06-07T12:38:28.878Z,2.53
2019-06-07T12:40:57.958Z,4.80
2019-06-07T12:43:23.306Z,2.50
2019-06-07T12:45:49.297Z,4.63
2019-06-07T12:48:18.562Z,3.17
2019-06-07T12:50:44.006Z,3.03
2019-06-07T12:53:09.969Z,4.13
2019-06-07T12:55:35.888Z,2.13
2019-06-07T12:58:01.773Z,2.40
2019-06-07T13:00:27.722Z,6.47
2019-06-07T13:02:53.660Z,4.10
2019-06-07T13:05:20.014Z,4.60
2019-06-07T13:07:46.011Z,3.60
2019-06-07T13:10:13.949Z,2.23
2019-06-07T13:12:39.844Z,2.77
2019-06-07T13:15:06.383Z,2.53
2019-06-07T13:17:32.468Z,3.57
2019-06-07T13:19:58.389Z,3.53
2019-06-07T13:22:24.464Z,2.53
2019-06-07T13:24:50.427Z,2.30
2019-06-07T13:27:16.338Z,2.87
2019-06-07T13:29:42.289Z,4.20
2019-06-07T13:32:08.199Z,2.80
2019-06-07T13:34:34.085Z,2.80
2019-06-07T13:37:00.024Z,2.77
2019-06-07T13:39:27.860Z,2.17
2019-06-07T13:41:53.826Z,3.97
2019-06-07T13:44:20.947Z,3.37
2019-06-07T13:46:46.877Z,4.07
2019-06-07T13:49:12.740Z,5.23
2019-06-07T13:51:38.734Z,4.57
2019-06-07T13:54:04.594Z,3.17
2019-06-07T13:56:30.486Z,2.73
2019-06-07T13:58:56.340Z,2.43
2019-06-07T14:01:22.527Z,2.20
2019-06-07T14:03:48.531Z,1.97
2019-06-07T14:06:14.412Z,4.17
2019-06-07T14:08:40.268Z,3.57
2019-06-07T14:11:06.170Z,2.50
2019-06-07T14:13:32.030Z,3.10
2019-06-07T14:15:57.887Z,2.90
2019-06-07T14:18:24.405Z,3.20
2019-06-07T14:20:50.333Z,4.93
2019-06-07T14:23:16.222Z,1.90
2019-06-07T14:25:42.089Z,3.53
2019-06-07T14:28:11.491Z,3.73
2019-06-07T14:30:35.741Z,2.40
2019-06-07T14:33:01.690Z,3.47
2019-06-07T14:35:28.903Z,3.10
2019-06-07T14:37:54.831Z,3.40
2019-06-07T14:40:20.789Z,5.70
2019-06-07T14:42:46.672Z,5.77
2019-06-07T14:45:13.432Z,2.27
2019-06-07T14:47:39.314Z,2.40
2019-06-07T14:50:07.177Z,3.23
2019-06-07T14:52:33.723Z,4.03
2019-06-07T14:55:00.825Z,6.00
2019-06-07T14:57:26.981Z,2.47
2019-06-07T14:59:52.876Z,2.40
2019-06-07T15:02:18.840Z,3.47
2019-06-07T15:04:45.047Z,2.50
2019-06-07T15:07:13.436Z,1.97
2019-06-07T15:09:39.415Z,2.07
2019-06-07T15:12:05.257Z,3.70
2019-06-07T15:14:31.475Z,5.00
2019-06-07T15:16:57.407Z,3.53
2019-06-07T15:19:24.278Z,2.30
2019-06-07T15:21:50.355Z,5.67
2019-06-07T15:24:16.358Z,4.17
2019-06-07T15:26:42.215Z,1.90
2019-06-07T15:29:08.109Z,3.17
2019-06-07T15:31:34.597Z,2.57
2019-06-07T15:34:01.929Z,2.90
2019-06-07T15:36:28.304Z,2.00
2019-06-07T15:38:54.230Z,3.77
2019-06-07T15:41:20.100Z,3.80
2019-06-07T15:43:45.973Z,3.27
2019-06-07T15:46:11.966Z,3.00
2019-06-07T15:48:38.325Z,3.33
2019-06-07T15:51:04.309Z,5.57
2019-06-07T15:53:34.036Z,2.03
2019-06-07T15:55:57.972Z,2.27
2019-06-07T15:58:23.865Z,3.30
2019-06-07T16:00:50.221Z,3.87
2019-06-07T16:03:16.258Z,2.33
2019-06-07T16:05:43.217Z,3.47
2019-06-07T16:08:09.189Z,2.70
2019-06-07T16:10:35.083Z,3.03
2019-06-07T16:13:01.237Z,2.73
2019-06-07T16:15:27.127Z,3.10
2019-06-07T16:17:52.985Z,2.30
2019-06-07T16:20:19.078Z,2.33
2019-06-07T16:22:44.939Z,3.77
2019-06-07T16:25:11.229Z,2.63
2019-06-07T16:27:38.373Z,2.43
2019-06-07T16:30:09.773Z,2.40
2019-06-07T16:32:37.173Z,2.87
2019-06-07T16:35:04.553Z,3.43
2019-06-07T16:37:30.410Z,2.33
2019-06-07T16:39:56.301Z,2.90
2019-06-07T16:42:22.241Z,2.20
2019-06-07T16:44:48.938Z,2.90
2019-06-07T16:47:14.892Z,3.90
2019-06-07T16:49:40.893Z,3.63
2019-06-07T16:52:06.794Z,2.70
2019-06-07T16:54:35.527Z,3.37
2019-06-07T16:57:00.429Z,4.30
2019-06-07T16:59:26.314Z,3.93
2019-06-07T17:01:52.202Z,2.47
2019-06-07T17:04:18.387Z,2.30
2019-06-07T17:06:44.227Z,3.00
2019-06-07T17:09:10.085Z,2.47
2019-06-07T17:11:36.069Z,3.03
2019-06-07T17:14:02.437Z,4.17
2019-06-07T17:16:28.456Z,2.57
2019-06-07T17:18:54.400Z,3.00
2019-06-07T17:21:20.274Z,1.93
2019-06-07T17:23:47.313Z,3.03
2019-06-07T17:26:13.329Z,2.93
2019-06-07T17:28:39.671Z,4.80
2019-06-07T17:31:05.579Z,3.47
2019-06-07T17:33:31.566Z,6.57
2019-06-07T17:35:57.449Z,3.20
2019-06-07T17:38:23.306Z,4.87
2019-06-07T17:40:49.327Z,2.53
2019-06-07T17:43:15.164Z,4.07
2019-06-07T17:45:41.353Z,4.03
2019-06-07T17:48:07.318Z,2.60
2019-06-07T17:50:33.169Z,2.90
2019-06-07T17:52:59.024Z,3.33
2019-06-07T17:55:24.889Z,29.20
2019-06-07T17:57:50.925Z,2.33
2019-06-07T18:00:34.311Z,3.23
2019-06-07T18:02:46.854Z,2.77
2019-06-07T18:05:13.002Z,5.70
2019-06-07T18:07:38.996Z,9.70
2019-06-07T18:10:07.848Z,4.37
2019-06-07T18:12:33.825Z,3.30
2019-06-07T18:14:59.779Z,3.73
2019-06-07T18:17:34.088Z,35.13
2019-06-07T18:19:53.444Z,5.90
2019-06-07T18:22:19.337Z,2.40
2019-06-07T18:24:46.467Z,4.03
2019-06-07T18:27:12.394Z,3.47
2019-06-07T18:29:38.251Z,3.10
2019-06-07T18:32:04.147Z,2.50
2019-06-07T18:34:30.004Z,2.03
2019-06-07T18:36:55.889Z,3.47
2019-06-07T18:39:21.749Z,3.50
2019-06-07T18:41:48.834Z,2.80
2019-06-07T18:44:21.495Z,2.93
2019-06-07T18:46:42.714Z,4.50
2019-06-07T18:49:08.622Z,5.10
2019-06-07T18:51:34.460Z,4.23
2019-06-07T18:54:00.349Z,3.07
2019-06-07T18:56:26.204Z,3.57
2019-06-07T18:58:53.140Z,3.03
2019-06-07T19:01:19.049Z,4.60
2019-06-07T19:03:47.133Z,4.17
2019-06-07T19:06:12.927Z,7.60
2019-06-07T19:08:38.813Z,3.23
2019-06-07T19:11:04.673Z,4.60
2019-06-07T19:13:30.558Z,4.47
2019-06-07T19:15:57.467Z,4.67
2019-06-07T19:18:23.417Z,4.67
2019-06-07T19:20:50.607Z,6.70
2019-06-07T19:23:16.993Z,3.37
2019-06-07T19:25:42.865Z,4.33
2019-06-07T19:28:08.761Z,3.10
2019-06-07T19:30:34.626Z,5.33
2019-06-07T19:33:01.506Z,4.73
2019-06-07T19:35:27.432Z,3.37
2019-06-07T19:37:53.783Z,3.10
2019-06-07T19:40:20.023Z,4.53
2019-06-07T19:42:45.885Z,3.57
2019-06-07T19:45:30.702Z,4.73
2019-06-07T19:47:40.455Z,6.00
2019-06-07T19:50:06.676Z,3.67
2019-06-07T19:52:32.631Z,4.53
2019-06-07T19:55:00.149Z,3.93
2019-06-07T19:57:26.175Z,5.23
2019-06-07T19:59:53.275Z,3.80
2019-06-07T20:02:19.256Z,4.83
2019-06-07T20:04:45.138Z,5.37
2019-06-07T20:07:11.035Z,4.93
2019-06-07T20:09:36.939Z,7.60
2019-06-07T20:12:02.993Z,4.87
2019-06-07T20:14:28.903Z,4.23
2019-06-07T20:16:55.188Z,3.80
2019-06-07T20:19:21.137Z,5.63
2019-06-07T20:21:47.034Z,4.90
2019-06-07T20:24:26.293Z,6.00
2019-06-07T20:26:40.691Z,5.27
2019-06-07T20:29:14.575Z,4.80
2019-06-07T20:31:34.343Z,8.63
2019-06-07T20:34:00.594Z,6.43
2019-06-07T20:36:26.485Z,5.00
2019-06-07T20:38:52.347Z,5.97
2019-06-07T20:41:18.234Z,5.40
2019-06-07T20:43:44.593Z,6.20
2019-06-07T20:46:10.480Z,8.07
2019-06-07T20:48:36.363Z,5.40
2019-06-07T20:51:02.806Z,6.77
2019-06-07T20:53:28.810Z,5.87
2019-06-07T20:55:54.703Z,6.83
2019-06-07T20:58:20.581Z,6.17
2019-06-07T21:00:46.441Z,6.53
2019-06-07T21:03:12.369Z,6.30
2019-06-07T21:05:38.253Z,8.07
2019-06-07T21:08:08.928Z,9.33
2019-06-07T21:10:31.989Z,5.80
2019-06-07T21:12:57.873Z,6.27
2019-06-07T21:15:23.738Z,6.73
2019-06-07T21:17:49.629Z,6.17
2019-06-07T21:20:15.486Z,7.23
2019-06-07T21:22:41.367Z,6.63
2019-06-07T21:25:09.523Z,6.93
2019-06-07T21:27:35.678Z,6.23
2019-06-07T21:30:03.409Z,8.83
2019-06-07T21:32:29.440Z,8.90
2019-06-07T21:34:55.305Z,10.90
2019-06-07T21:37:21.198Z,10.83
2019-06-07T21:39:49.925Z,8.43
2019-06-07T21:42:14.852Z,8.00
2019-06-07T21:44:40.828Z,9.70
2019-06-07T21:47:06.722Z,12.33
2019-06-07T21:49:32.608Z,8.83
2019-06-07T21:51:58.978Z,8.30
2019-06-07T21:54:24.866Z,8.67
2019-06-07T21:56:50.851Z,8.83
2019-06-07T21:59:16.785Z,7.43
2019-06-07T22:01:42.777Z,7.10
2019-06-07T22:04:09.643Z,8.17
2019-06-07T22:06:35.636Z,7.93
2019-06-07T22:09:01.519Z,4.83
2019-06-07T22:11:27.383Z,6.83
2019-06-07T22:13:53.279Z,7.43
2019-06-07T22:16:28.563Z,7.30
2019-06-07T22:18:47.007Z,7.20
2019-06-07T22:21:12.978Z,9.43
2019-06-07T22:23:38.866Z,19.63
2019-06-07T22:26:04.903Z,8.27
2019-06-07T22:28:30.831Z,8.90
2019-06-07T22:30:56.689Z,11.07
2019-06-07T22:33:22.581Z,11.83
2019-06-07T22:35:48.441Z,11.70
2019-06-07T22:38:14.373Z,11.93
2019-06-07T22:40:40.299Z,14.40
2019-06-07T22:43:07.512Z,13.77
2019-06-07T22:45:33.485Z,11.60
2019-06-07T22:47:59.348Z,11.97
2019-06-07T22:50:25.395Z,11.87
2019-06-07T22:52:51.214Z,11.53
2019-06-07T22:55:18.197Z,11.40
2019-06-07T22:57:57.662Z,12.97
2019-06-07T23:00:24.536Z,11.73
2019-06-07T23:02:50.532Z,12.13
2019-06-07T23:05:16.828Z,12.07
2019-06-07T23:07:42.790Z,12.23
2019-06-07T23:10:09.061Z,14.83
2019-06-07T23:12:34.947Z,14.20
2019-06-07T23:15:00.840Z,12.83
2019-06-07T23:17:26.697Z,14.67
2019-06-07T23:19:52.582Z,9.77
2019-06-07T23:22:18.452Z,12.27
2019-06-07T23:24:44.348Z,11.60
2019-06-07T23:27:11.099Z,12.93
2019-06-07T23:29:38.017Z,11.70
2019-06-07T23:32:03.880Z,12.43
2019-06-07T23:34:29.847Z,10.67
2019-06-07T23:36:55.737Z,11.23
2019-06-07T23:39:22.499Z,11.40
2019-06-07T23:41:48.513Z,12.27
2019-06-07T23:44:15.341Z,12.37
2019-06-07T23:46:41.285Z,11.37
2019-06-07T23:49:07.158Z,12.30
2019-06-07T23:51:33.052Z,14.77
2019-06-07T23:53:58.922Z,14.00
2019-06-07T23:56:24.915Z,14.27
2019-06-07T23:58:50.848Z,13.07
